Woodburn, Mississippi
Current Conditions -  °F | °C
As of 10:53 AM on Saturday 20 Dec 2014 (Local Time) from KGLH Reporting Station
Clear Clear  
Wind Chill:   Ceiling: Unl
Heat Index:   Visibility: 8mi
Dew Point:   Wind: 8mph
Humidity: 66%   Direction: 40°NE
Pressure: 30.28"   Gusts: NA
Location:  33.4825°N, 90.6856°W
Report Text: KGLH 201653Z AUTO 04007KT 8SM CLR 09/03 A3028 RMK AO2 SLP261 T00890028
Loading
Personal Weather Stations






























Interactive Weather Map New forecast layout! Learn more

10-Day Weather Forecast

Advertisements
Track Severe Weather on mobile